createdAt,value
2023-04-23T00:03:10.116Z,20.10
2023-04-23T00:08:12.694Z,18.50
2023-04-23T00:13:14.610Z,18.50
2023-04-23T00:18:17.147Z,18.30
2023-04-23T00:23:18.901Z,18.40
2023-04-23T00:28:22.211Z,21.30
2023-04-23T00:33:24.239Z,21.00
2023-04-23T00:38:26.633Z,19.80
2023-04-23T00:43:28.921Z,24.50
2023-04-23T00:48:32.338Z,22.10
2023-04-23T00:53:34.330Z,23.50
2023-04-23T00:58:36.702Z,23.30
2023-04-23T01:03:39.628Z,25.80
2023-04-23T01:08:43.338Z,23.50
2023-04-23T01:13:45.288Z,22.30
2023-04-23T01:18:47.144Z,20.00
2023-04-23T01:23:50.503Z,20.00
2023-04-23T01:28:52.910Z,20.60
2023-04-23T01:33:55.933Z,34.60
2023-04-23T01:38:57.766Z,23.30
2023-04-23T01:44:00.632Z,21.10
2023-04-23T01:49:02.876Z,20.70
2023-04-23T01:54:04.608Z,21.30
2023-04-23T01:59:07.411Z,21.60
2023-04-23T02:04:09.980Z,19.90
2023-04-23T02:09:11.936Z,21.90
2023-04-23T02:14:13.827Z,23.50
2023-04-23T02:19:17.007Z,21.10
2023-04-23T02:24:18.725Z,22.80
2023-04-23T02:29:21.111Z,22.10
2023-04-23T02:34:22.827Z,23.40
2023-04-23T02:49:27.966Z,25.30
2023-04-23T02:54:32.414Z,24.40
2023-04-23T02:59:34.175Z,24.90
2023-04-23T03:04:36.223Z,23.90
2023-04-23T03:09:37.914Z,26.70
2023-04-23T03:19:42.049Z,26.00
2023-04-23T03:24:44.064Z,25.80
2023-04-23T03:29:46.439Z,25.10
2023-04-23T03:34:48.148Z,24.60
2023-04-23T03:39:50.038Z,23.70
2023-04-23T03:44:51.825Z,25.20
2023-04-23T03:49:54.700Z,23.80
2023-04-23T03:54:57.458Z,25.40
2023-04-23T04:00:11.878Z,23.10
2023-04-23T04:07:12.907Z,23.60
2023-04-23T04:12:16.146Z,23.90
2023-04-23T04:17:18.243Z,23.50
2023-04-23T04:22:20.690Z,22.70
2023-04-23T04:27:22.626Z,22.70
2023-04-23T04:32:24.272Z,21.50
2023-04-23T04:37:26.487Z,21.40
2023-04-23T04:42:28.291Z,21.00
2023-04-23T04:47:30.005Z,20.20
2023-04-23T04:52:31.922Z,19.20
2023-04-23T04:57:33.931Z,19.60
2023-04-23T05:02:35.757Z,19.10
2023-04-23T05:07:37.590Z,19.60
2023-04-23T05:12:41.616Z,19.80
2023-04-23T05:17:43.985Z,19.50
2023-04-23T05:22:45.817Z,20.20
2023-04-23T05:27:47.596Z,21.40
2023-04-23T05:32:49.916Z,19.70
2023-04-23T05:37:51.807Z,20.30
2023-04-23T05:42:53.558Z,19.70
2023-04-23T05:47:55.447Z,20.90
2023-04-23T05:52:57.330Z,20.00
2023-04-23T05:57:59.030Z,17.90
2023-04-23T06:03:00.974Z,14.70
2023-04-23T06:08:03.154Z,12.50
2023-04-23T06:13:04.955Z,12.00
2023-04-23T06:18:06.826Z,7.40
2023-04-23T06:23:08.796Z,6.60
2023-04-23T06:28:10.649Z,7.70
2023-04-23T06:33:22.955Z,8.70
2023-04-23T06:38:24.741Z,8.30
2023-04-23T06:43:26.939Z,9.10
2023-04-23T06:48:50.274Z,8.80
2023-04-23T06:53:52.866Z,10.40
2023-04-23T06:58:54.678Z,9.00
2023-04-23T07:03:56.922Z,8.90
2023-04-23T07:08:59.083Z,7.90
2023-04-23T07:14:01.408Z,8.10
2023-04-23T07:19:03.385Z,6.90
2023-04-23T07:24:07.372Z,6.50
2023-04-23T07:29:14.142Z,5.70
2023-04-23T07:34:16.335Z,6.60
2023-04-23T07:39:18.246Z,6.60
2023-04-23T07:44:20.121Z,5.10
2023-04-23T07:49:21.878Z,5.50
2023-04-23T07:54:25.766Z,5.40
2023-04-23T07:59:27.626Z,5.50
2023-04-23T08:04:29.385Z,5.60
2023-04-23T08:09:31.406Z,4.70
2023-04-23T08:14:33.077Z,4.90
2023-04-23T08:19:36.072Z,4.50
2023-04-23T08:24:37.819Z,4.10
2023-04-23T08:29:39.676Z,4.10
2023-04-23T08:34:41.560Z,4.80
2023-04-23T08:39:43.518Z,5.10
2023-04-23T08:44:47.037Z,4.70
2023-04-23T08:49:54.011Z,4.00
2023-04-23T08:55:01.424Z,3.70
2023-04-23T09:00:09.502Z,4.50
2023-04-23T09:05:12.281Z,3.50
2023-04-23T09:10:17.736Z,3.80
2023-04-23T09:15:20.508Z,3.60
2023-04-23T09:20:22.438Z,4.60
2023-04-23T09:25:24.701Z,3.60
2023-04-23T09:30:27.740Z,3.30
2023-04-23T09:35:29.742Z,3.00
2023-04-23T09:40:31.574Z,3.40
2023-04-23T09:45:35.340Z,3.10
2023-04-23T09:50:38.959Z,3.30
2023-04-23T09:55:43.019Z,3.10
2023-04-23T10:00:44.867Z,3.10
2023-04-23T10:06:00.586Z,3.60
2023-04-23T10:11:14.071Z,3.10
2023-04-23T10:16:26.823Z,3.20
2023-04-23T10:21:46.706Z,3.60
2023-04-23T10:27:02.070Z,2.70
2023-04-23T10:32:09.249Z,3.10
2023-04-23T10:37:12.174Z,3.20
2023-04-23T10:42:14.223Z,3.10
2023-04-23T10:47:17.734Z,3.60
2023-04-23T10:52:21.713Z,4.10
2023-04-23T10:57:24.661Z,4.80
2023-04-23T11:02:26.610Z,3.90
2023-04-23T11:07:33.444Z,3.50
2023-04-23T11:12:35.549Z,3.80
2023-04-23T11:17:37.209Z,3.40
2023-04-23T11:22:51.626Z,3.40
2023-04-23T11:27:55.830Z,3.30
2023-04-23T11:33:00.415Z,2.70
2023-04-23T11:38:08.973Z,3.30
2023-04-23T11:43:11.042Z,3.60
2023-04-23T11:48:12.784Z,2.90
2023-04-23T11:53:15.064Z,2.70
2023-04-23T11:58:19.913Z,2.60
2023-04-23T12:03:27.301Z,3.30
2023-04-23T12:08:35.074Z,4.00
2023-04-23T12:13:40.695Z,6.70
2023-04-23T12:18:44.378Z,3.30
2023-04-23T12:23:52.456Z,2.80
2023-04-23T12:28:58.097Z,2.90
2023-04-23T12:34:04.273Z,3.70
2023-04-23T12:39:29.893Z,2.70
2023-04-23T12:44:35.678Z,2.70
2023-04-23T12:49:40.314Z,2.80
2023-04-23T12:54:44.755Z,2.90
2023-04-23T12:59:46.668Z,2.70
2023-04-23T13:04:48.334Z,2.80
2023-04-23T13:09:50.065Z,2.60
2023-04-23T13:14:51.882Z,3.70
2023-04-23T13:19:57.164Z,2.70
2023-04-23T13:24:59.737Z,2.70
2023-04-23T13:30:01.597Z,2.60
2023-04-23T13:35:05.097Z,2.40
2023-04-23T13:40:07.816Z,3.40
2023-04-23T13:45:09.924Z,2.60
2023-04-23T13:50:11.703Z,2.20
2023-04-23T13:55:13.444Z,2.10
2023-04-23T14:00:15.887Z,2.50
2023-04-23T14:05:17.802Z,2.80
2023-04-23T14:10:19.623Z,3.30
2023-04-23T14:15:21.762Z,2.40
2023-04-23T14:20:23.637Z,2.70
2023-04-23T14:25:30.984Z,2.70
2023-04-23T14:30:34.530Z,2.20
2023-04-23T14:40:43.550Z,2.80
2023-04-23T14:45:47.049Z,2.50
2023-04-23T14:50:48.911Z,3.20
2023-04-23T14:55:51.292Z,2.90
2023-04-23T15:00:53.350Z,2.30
2023-04-23T15:05:55.138Z,2.40
2023-04-23T15:10:56.963Z,2.20
2023-04-23T15:16:03.467Z,2.50
2023-04-23T15:21:15.505Z,2.70
2023-04-23T15:26:17.356Z,2.40
2023-04-23T15:31:19.063Z,3.90
2023-04-23T15:36:20.834Z,3.60
2023-04-23T15:41:22.540Z,5.90
2023-04-23T15:46:24.248Z,4.00
2023-04-23T15:51:26.113Z,3.50
2023-04-23T15:56:27.811Z,2.40
2023-04-23T16:01:29.922Z,2.50
2023-04-23T16:06:32.049Z,2.70
2023-04-23T16:11:37.938Z,2.30
2023-04-23T16:16:39.712Z,3.60
2023-04-23T16:21:41.477Z,4.10
2023-04-23T16:26:43.466Z,2.30
2023-04-23T16:31:45.340Z,2.90
2023-04-23T16:36:47.171Z,3.40
2023-04-23T16:41:48.885Z,4.10
2023-04-23T16:46:51.004Z,4.50
2023-04-23T16:51:54.456Z,3.90
2023-04-23T16:56:57.543Z,3.80
2023-04-23T17:01:59.505Z,4.10
2023-04-23T17:07:01.505Z,4.30
2023-04-23T17:12:04.526Z,3.70
2023-04-23T17:17:06.422Z,4.20
2023-04-23T17:22:10.648Z,5.00
2023-04-23T17:27:13.719Z,4.50
2023-04-23T17:32:15.719Z,7.60
2023-04-23T17:37:17.684Z,5.90
2023-04-23T17:42:19.853Z,6.20
2023-04-23T17:47:21.547Z,8.00
2023-04-23T17:52:23.231Z,7.30
2023-04-23T17:57:24.938Z,6.50
2023-04-23T18:02:26.954Z,10.00
2023-04-23T18:07:28.724Z,5.70
2023-04-23T18:12:31.559Z,4.60
2023-04-23T18:17:33.283Z,5.10
2023-04-23T18:22:38.741Z,5.50
2023-04-23T18:27:40.589Z,5.10
2023-04-23T18:32:48.027Z,5.60
2023-04-23T18:37:55.051Z,6.80
2023-04-23T18:42:56.792Z,4.70
2023-04-23T18:48:04.322Z,6.40
2023-04-23T18:53:06.435Z,7.50
2023-04-23T18:58:08.154Z,6.20
2023-04-23T19:03:23.709Z,5.90
2023-04-23T19:08:28.795Z,5.90
2023-04-23T19:13:31.160Z,6.50
2023-04-23T19:18:32.914Z,7.00
2023-04-23T19:23:34.688Z,7.50
2023-04-23T19:28:36.405Z,7.00
2023-04-23T19:33:38.186Z,8.20
2023-04-23T19:38:39.993Z,8.70
2023-04-23T19:43:41.752Z,8.70
2023-04-23T19:48:43.883Z,8.10
2023-04-23T19:53:45.615Z,8.70
2023-04-23T19:58:47.843Z,6.60
2023-04-23T20:03:52.028Z,7.90
2023-04-23T20:09:12.827Z,6.90
2023-04-23T20:14:14.884Z,8.80
2023-04-23T20:19:17.268Z,8.00
2023-04-23T20:24:21.419Z,12.90
2023-04-23T20:29:23.202Z,8.80
2023-04-23T20:34:25.003Z,8.90
2023-04-23T20:39:26.768Z,13.20
2023-04-23T20:44:28.890Z,10.10
2023-04-23T20:49:33.365Z,10.80
2023-04-23T20:54:36.183Z,11.70
2023-04-23T20:59:37.967Z,11.50
2023-04-23T21:04:39.848Z,10.60
2023-04-23T21:09:44.450Z,12.60
2023-04-23T21:14:50.741Z,13.00
2023-04-23T21:19:52.613Z,11.80
2023-04-23T21:24:54.406Z,13.10
2023-04-23T21:29:58.177Z,9.60
2023-04-23T21:34:59.889Z,10.20
2023-04-23T21:40:04.196Z,12.20
2023-04-23T21:45:07.561Z,18.10
2023-04-23T21:50:31.511Z,12.20
2023-04-23T21:55:33.437Z,18.70
2023-04-23T22:00:35.343Z,13.70
2023-04-23T22:05:37.270Z,17.10
2023-04-23T22:10:43.209Z,15.40
2023-04-23T22:15:45.117Z,20.20
2023-04-23T22:20:50.744Z,18.60
2023-04-23T22:25:52.550Z,18.80
2023-04-23T22:30:54.640Z,21.70
2023-04-23T22:35:56.729Z,23.80
2023-04-23T22:40:59.633Z,22.60
2023-04-23T22:46:01.540Z,25.50
2023-04-23T22:51:05.118Z,27.30
2023-04-23T22:56:07.670Z,27.30
2023-04-23T23:01:09.438Z,28.90
2023-04-23T23:06:12.186Z,26.90
2023-04-23T23:11:15.326Z,27.50
2023-04-23T23:16:26.796Z,27.50
